sensor_id;sensor_type;location;lat;lon;timestamp;P1;durP1;ratioP1;P2;durP2;ratioP2
4464;SDS011;2245;48.136;13.428;2023-06-22T00:01:17;10.63;;;3.87;;
4464;SDS011;2245;48.136;13.428;2023-06-22T00:03:57;8.47;;;4.77;;
4464;SDS011;2245;48.136;13.428;2023-06-22T00:06:24;9.67;;;4.27;;
4464;SDS011;2245;48.136;13.428;2023-06-22T00:09:05;6.50;;;3.63;;
4464;SDS011;2245;48.136;13.428;2023-06-22T00:11:45;8.80;;;4.00;;
4464;SDS011;2245;48.136;13.428;2023-06-22T00:14:13;6.00;;;3.80;;
4464;SDS011;2245;48.136;13.428;2023-06-22T00:16:40;7.17;;;3.30;;
4464;SDS011;2245;48.136;13.428;2023-06-22T00:19:21;7.70;;;3.93;;
4464;SDS011;2245;48.136;13.428;2023-06-22T00:22:01;8.00;;;4.70;;
4464;SDS011;2245;48.136;13.428;2023-06-22T00:24:29;7.53;;;4.27;;
4464;SDS011;2245;48.136;13.428;2023-06-22T00:26:56;11.73;;;3.83;;
4464;SDS011;2245;48.136;13.428;2023-06-22T00:35:30;8.33;;;3.73;;
4464;SDS011;2245;48.136;13.428;2023-06-22T00:38:10;11.27;;;4.37;;
4464;SDS011;2245;48.136;13.428;2023-06-22T00:40:51;8.93;;;4.33;;
4464;SDS011;2245;48.136;13.428;2023-06-22T00:43:18;8.03;;;3.33;;
4464;SDS011;2245;48.136;13.428;2023-06-22T00:45:45;6.33;;;3.90;;
4464;SDS011;2245;48.136;13.428;2023-06-22T00:48:13;7.47;;;3.63;;
4464;SDS011;2245;48.136;13.428;2023-06-22T00:50:41;10.73;;;4.30;;
4464;SDS011;2245;48.136;13.428;2023-06-22T00:53:08;6.83;;;4.20;;
4464;SDS011;2245;48.136;13.428;2023-06-22T00:55:36;9.00;;;3.83;;
4464;SDS011;2245;48.136;13.428;2023-06-22T00:58:04;7.60;;;3.60;;
4464;SDS011;2245;48.136;13.428;2023-06-22T01:00:33;6.40;;;3.93;;
4464;SDS011;2245;48.136;13.428;2023-06-22T01:03:01;6.03;;;3.30;;
4464;SDS011;2245;48.136;13.428;2023-06-22T01:05:29;10.80;;;4.73;;
4464;SDS011;2245;48.136;13.428;2023-06-22T01:08:00;14.20;;;4.10;;
4464;SDS011;2245;48.136;13.428;2023-06-22T01:10:34;9.07;;;4.10;;
4464;SDS011;2245;48.136;13.428;2023-06-22T01:13:05;9.30;;;3.70;;
4464;SDS011;2245;48.136;13.428;2023-06-22T01:15:36;11.47;;;4.30;;
4464;SDS011;2245;48.136;13.428;2023-06-22T01:18:05;8.93;;;3.83;;
4464;SDS011;2245;48.136;13.428;2023-06-22T01:20:35;12.03;;;4.63;;
4464;SDS011;2245;48.136;13.428;2023-06-22T01:23:05;5.93;;;3.63;;
4464;SDS011;2245;48.136;13.428;2023-06-22T01:25:37;10.23;;;3.83;;
4464;SDS011;2245;48.136;13.428;2023-06-22T01:28:13;8.40;;;3.97;;
4464;SDS011;2245;48.136;13.428;2023-06-22T01:30:59;8.80;;;3.93;;
4464;SDS011;2245;48.136;13.428;2023-06-22T01:33:31;7.60;;;3.40;;
4464;SDS011;2245;48.136;13.428;2023-06-22T01:36:00;4.27;;;3.00;;
4464;SDS011;2245;48.136;13.428;2023-06-22T01:38:28;7.23;;;4.53;;
4464;SDS011;2245;48.136;13.428;2023-06-22T01:40:55;8.80;;;4.00;;
4464;SDS011;2245;48.136;13.428;2023-06-22T01:43:23;11.30;;;4.17;;
4464;SDS011;2245;48.136;13.428;2023-06-22T01:45:51;6.97;;;3.83;;
4464;SDS011;2245;48.136;13.428;2023-06-22T01:48:20;9.70;;;4.33;;
4464;SDS011;2245;48.136;13.428;2023-06-22T01:50:46;5.50;;;3.53;;
4464;SDS011;2245;48.136;13.428;2023-06-22T01:53:14;8.67;;;4.30;;
4464;SDS011;2245;48.136;13.428;2023-06-22T01:55:41;10.60;;;4.10;;
4464;SDS011;2245;48.136;13.428;2023-06-22T01:58:07;10.70;;;4.00;;
4464;SDS011;2245;48.136;13.428;2023-06-22T02:00:36;11.50;;;3.97;;
4464;SDS011;2245;48.136;13.428;2023-06-22T02:03:05;6.67;;;3.80;;
4464;SDS011;2245;48.136;13.428;2023-06-22T02:05:36;5.90;;;3.90;;
4464;SDS011;2245;48.136;13.428;2023-06-22T02:08:08;11.83;;;4.10;;
4464;SDS011;2245;48.136;13.428;2023-06-22T02:10:36;6.47;;;3.53;;
4464;SDS011;2245;48.136;13.428;2023-06-22T02:13:06;7.97;;;3.70;;
4464;SDS011;2245;48.136;13.428;2023-06-22T02:15:33;14.10;;;4.20;;
4464;SDS011;2245;48.136;13.428;2023-06-22T02:18:00;13.33;;;4.90;;
4464;SDS011;2245;48.136;13.428;2023-06-22T02:20:27;9.13;;;4.13;;
4464;SDS011;2245;48.136;13.428;2023-06-22T02:22:55;5.83;;;3.60;;
4464;SDS011;2245;48.136;13.428;2023-06-22T02:25:22;10.47;;;4.30;;
4464;SDS011;2245;48.136;13.428;2023-06-22T02:27:49;6.07;;;3.50;;
4464;SDS011;2245;48.136;13.428;2023-06-22T02:30:16;12.30;;;3.93;;
4464;SDS011;2245;48.136;13.428;2023-06-22T02:32:43;6.87;;;3.87;;
4464;SDS011;2245;48.136;13.428;2023-06-22T02:35:10;8.77;;;3.60;;
4464;SDS011;2245;48.136;13.428;2023-06-22T02:37:37;6.90;;;3.23;;
4464;SDS011;2245;48.136;13.428;2023-06-22T02:40:08;13.63;;;4.37;;
4464;SDS011;2245;48.136;13.428;2023-06-22T02:42:35;15.00;;;3.80;;
4464;SDS011;2245;48.136;13.428;2023-06-22T02:45:02;7.43;;;3.60;;
4464;SDS011;2245;48.136;13.428;2023-06-22T02:47:29;16.70;;;4.40;;
4464;SDS011;2245;48.136;13.428;2023-06-22T02:49:56;6.90;;;4.30;;
4464;SDS011;2245;48.136;13.428;2023-06-22T02:52:23;6.27;;;3.60;;
4464;SDS011;2245;48.136;13.428;2023-06-22T02:54:50;15.70;;;4.60;;
4464;SDS011;2245;48.136;13.428;2023-06-22T02:57:18;7.13;;;3.47;;
4464;SDS011;2245;48.136;13.428;2023-06-22T02:59:45;6.23;;;3.63;;
4464;SDS011;2245;48.136;13.428;2023-06-22T03:02:12;7.67;;;4.27;;
4464;SDS011;2245;48.136;13.428;2023-06-22T03:04:39;9.70;;;4.00;;
4464;SDS011;2245;48.136;13.428;2023-06-22T03:07:06;9.87;;;3.97;;
4464;SDS011;2245;48.136;13.428;2023-06-22T03:09:33;9.80;;;3.20;;
4464;SDS011;2245;48.136;13.428;2023-06-22T03:11:59;8.17;;;3.60;;
4464;SDS011;2245;48.136;13.428;2023-06-22T03:14:28;8.93;;;4.30;;
4464;SDS011;2245;48.136;13.428;2023-06-22T03:16:55;11.00;;;5.17;;
4464;SDS011;2245;48.136;13.428;2023-06-22T03:19:28;8.20;;;4.00;;
4464;SDS011;2245;48.136;13.428;2023-06-22T03:21:56;11.40;;;3.43;;
4464;SDS011;2245;48.136;13.428;2023-06-22T03:24:23;7.67;;;4.20;;
4464;SDS011;2245;48.136;13.428;2023-06-22T03:26:50;17.00;;;4.80;;
4464;SDS011;2245;48.136;13.428;2023-06-22T03:29:17;6.77;;;3.13;;
4464;SDS011;2245;48.136;13.428;2023-06-22T03:31:45;6.13;;;3.77;;
4464;SDS011;2245;48.136;13.428;2023-06-22T03:34:13;10.87;;;4.03;;
4464;SDS011;2245;48.136;13.428;2023-06-22T03:36:41;11.30;;;3.57;;
4464;SDS011;2245;48.136;13.428;2023-06-22T03:39:10;8.10;;;3.50;;
4464;SDS011;2245;48.136;13.428;2023-06-22T03:41:37;10.07;;;4.50;;
4464;SDS011;2245;48.136;13.428;2023-06-22T03:44:04;11.70;;;4.27;;
4464;SDS011;2245;48.136;13.428;2023-06-22T03:46:30;9.33;;;4.20;;
4464;SDS011;2245;48.136;13.428;2023-06-22T03:48:59;7.33;;;3.97;;
4464;SDS011;2245;48.136;13.428;2023-06-22T03:51:28;8.20;;;4.97;;
4464;SDS011;2245;48.136;13.428;2023-06-22T03:53:55;14.50;;;4.27;;
4464;SDS011;2245;48.136;13.428;2023-06-22T03:56:22;7.93;;;3.40;;
4464;SDS011;2245;48.136;13.428;2023-06-22T03:58:49;4.57;;;3.40;;
4464;SDS011;2245;48.136;13.428;2023-06-22T04:01:16;10.67;;;6.27;;
4464;SDS011;2245;48.136;13.428;2023-06-22T04:03:43;9.40;;;3.13;;
4464;SDS011;2245;48.136;13.428;2023-06-22T04:06:11;6.30;;;4.00;;
4464;SDS011;2245;48.136;13.428;2023-06-22T04:08:38;7.30;;;4.23;;
4464;SDS011;2245;48.136;13.428;2023-06-22T04:11:06;7.00;;;3.73;;
4464;SDS011;2245;48.136;13.428;2023-06-22T04:13:32;12.50;;;5.00;;
4464;SDS011;2245;48.136;13.428;2023-06-22T04:15:59;8.97;;;4.17;;
4464;SDS011;2245;48.136;13.428;2023-06-22T04:18:26;6.70;;;3.87;;
4464;SDS011;2245;48.136;13.428;2023-06-22T04:20:53;6.87;;;3.53;;
4464;SDS011;2245;48.136;13.428;2023-06-22T04:23:22;12.73;;;5.07;;
4464;SDS011;2245;48.136;13.428;2023-06-22T04:25:48;7.63;;;3.60;;
4464;SDS011;2245;48.136;13.428;2023-06-22T04:28:15;15.70;;;6.13;;
4464;SDS011;2245;48.136;13.428;2023-06-22T04:30:42;13.63;;;9.37;;
4464;SDS011;2245;48.136;13.428;2023-06-22T04:33:12;11.90;;;6.23;;
4464;SDS011;2245;48.136;13.428;2023-06-22T04:35:39;9.93;;;4.70;;
4464;SDS011;2245;48.136;13.428;2023-06-22T04:38:07;14.50;;;6.57;;
4464;SDS011;2245;48.136;13.428;2023-06-22T04:40:35;13.33;;;7.70;;
4464;SDS011;2245;48.136;13.428;2023-06-22T04:43:02;6.93;;;4.20;;
4464;SDS011;2245;48.136;13.428;2023-06-22T04:45:31;9.80;;;5.90;;
4464;SDS011;2245;48.136;13.428;2023-06-22T04:47:58;10.17;;;4.30;;
4464;SDS011;2245;48.136;13.428;2023-06-22T04:50:25;11.37;;;7.00;;
4464;SDS011;2245;48.136;13.428;2023-06-22T04:52:51;10.30;;;6.67;;
4464;SDS011;2245;48.136;13.428;2023-06-22T04:55:19;14.83;;;9.13;;
4464;SDS011;2245;48.136;13.428;2023-06-22T04:57:47;14.13;;;6.43;;
4464;SDS011;2245;48.136;13.428;2023-06-22T05:00:15;11.57;;;6.87;;
4464;SDS011;2245;48.136;13.428;2023-06-22T05:02:44;16.53;;;6.10;;
4464;SDS011;2245;48.136;13.428;2023-06-22T05:05:11;13.93;;;7.10;;
4464;SDS011;2245;48.136;13.428;2023-06-22T05:07:41;8.93;;;5.37;;
4464;SDS011;2245;48.136;13.428;2023-06-22T05:10:10;16.03;;;5.57;;
4464;SDS011;2245;48.136;13.428;2023-06-22T05:12:38;8.37;;;4.47;;
4464;SDS011;2245;48.136;13.428;2023-06-22T05:15:08;8.87;;;5.13;;
4464;SDS011;2245;48.136;13.428;2023-06-22T05:17:35;8.30;;;4.60;;
4464;SDS011;2245;48.136;13.428;2023-06-22T05:20:08;14.20;;;4.87;;
4464;SDS011;2245;48.136;13.428;2023-06-22T05:22:35;12.10;;;5.57;;
4464;SDS011;2245;48.136;13.428;2023-06-22T05:25:02;9.67;;;5.23;;
4464;SDS011;2245;48.136;13.428;2023-06-22T05:27:29;8.73;;;4.27;;
4464;SDS011;2245;48.136;13.428;2023-06-22T05:29:56;8.90;;;4.47;;
4464;SDS011;2245;48.136;13.428;2023-06-22T05:32:24;8.33;;;3.73;;
4464;SDS011;2245;48.136;13.428;2023-06-22T05:34:51;10.20;;;4.03;;
4464;SDS011;2245;48.136;13.428;2023-06-22T05:37:18;7.13;;;4.40;;
4464;SDS011;2245;48.136;13.428;2023-06-22T05:39:45;8.27;;;4.03;;
4464;SDS011;2245;48.136;13.428;2023-06-22T05:42:11;7.00;;;4.60;;
4464;SDS011;2245;48.136;13.428;2023-06-22T05:44:38;12.60;;;4.70;;
4464;SDS011;2245;48.136;13.428;2023-06-22T05:47:06;7.97;;;4.57;;
4464;SDS011;2245;48.136;13.428;2023-06-22T05:49:34;7.90;;;4.03;;
4464;SDS011;2245;48.136;13.428;2023-06-22T05:52:01;8.97;;;3.67;;
4464;SDS011;2245;48.136;13.428;2023-06-22T05:54:28;7.83;;;4.20;;
4464;SDS011;2245;48.136;13.428;2023-06-22T05:56:54;8.03;;;4.60;;
4464;SDS011;2245;48.136;13.428;2023-06-22T05:59:21;7.63;;;3.43;;
4464;SDS011;2245;48.136;13.428;2023-06-22T06:01:48;6.57;;;3.50;;
4464;SDS011;2245;48.136;13.428;2023-06-22T06:04:16;5.57;;;3.67;;
4464;SDS011;2245;48.136;13.428;2023-06-22T06:06:45;8.90;;;4.90;;
4464;SDS011;2245;48.136;13.428;2023-06-22T06:09:12;8.57;;;3.93;;
4464;SDS011;2245;48.136;13.428;2023-06-22T06:11:39;5.43;;;4.00;;
4464;SDS011;2245;48.136;13.428;2023-06-22T06:14:07;11.33;;;3.63;;
4464;SDS011;2245;48.136;13.428;2023-06-22T06:16:34;6.77;;;3.47;;
4464;SDS011;2245;48.136;13.428;2023-06-22T06:19:01;8.60;;;3.40;;
4464;SDS011;2245;48.136;13.428;2023-06-22T06:21:28;12.97;;;4.10;;
4464;SDS011;2245;48.136;13.428;2023-06-22T06:23:56;7.63;;;3.87;;
4464;SDS011;2245;48.136;13.428;2023-06-22T06:26:23;10.97;;;3.50;;
4464;SDS011;2245;48.136;13.428;2023-06-22T06:28:55;7.10;;;3.33;;
4464;SDS011;2245;48.136;13.428;2023-06-22T06:31:22;7.23;;;3.97;;
4464;SDS011;2245;48.136;13.428;2023-06-22T06:33:49;7.70;;;4.00;;
4464;SDS011;2245;48.136;13.428;2023-06-22T06:36:15;7.27;;;3.90;;
4464;SDS011;2245;48.136;13.428;2023-06-22T06:38:42;5.33;;;3.63;;
4464;SDS011;2245;48.136;13.428;2023-06-22T06:41:11;12.07;;;3.93;;
4464;SDS011;2245;48.136;13.428;2023-06-22T06:43:37;8.90;;;3.90;;
4464;SDS011;2245;48.136;13.428;2023-06-22T06:46:04;7.47;;;3.80;;
4464;SDS011;2245;48.136;13.428;2023-06-22T06:48:31;12.37;;;4.03;;
4464;SDS011;2245;48.136;13.428;2023-06-22T06:50:58;11.00;;;4.43;;
4464;SDS011;2245;48.136;13.428;2023-06-22T06:53:25;6.40;;;4.03;;
4464;SDS011;2245;48.136;13.428;2023-06-22T06:55:52;7.70;;;4.07;;
4464;SDS011;2245;48.136;13.428;2023-06-22T06:58:20;6.03;;;3.50;;
4464;SDS011;2245;48.136;13.428;2023-06-22T07:00:48;6.00;;;3.73;;
4464;SDS011;2245;48.136;13.428;2023-06-22T07:03:15;8.00;;;3.70;;
4464;SDS011;2245;48.136;13.428;2023-06-22T07:05:41;6.90;;;3.20;;
4464;SDS011;2245;48.136;13.428;2023-06-22T07:08:08;4.47;;;3.50;;
4464;SDS011;2245;48.136;13.428;2023-06-22T07:10:35;6.60;;;3.70;;
4464;SDS011;2245;48.136;13.428;2023-06-22T07:13:02;7.33;;;4.37;;
4464;SDS011;2245;48.136;13.428;2023-06-22T07:15:31;5.60;;;4.33;;
4464;SDS011;2245;48.136;13.428;2023-06-22T07:17:57;9.40;;;4.70;;
4464;SDS011;2245;48.136;13.428;2023-06-22T07:20:24;9.13;;;3.73;;
4464;SDS011;2245;48.136;13.428;2023-06-22T07:22:51;9.57;;;4.50;;
4464;SDS011;2245;48.136;13.428;2023-06-22T07:25:18;8.23;;;4.13;;
4464;SDS011;2245;48.136;13.428;2023-06-22T07:27:56;10.13;;;4.00;;
4464;SDS011;2245;48.136;13.428;2023-06-22T07:30:24;10.33;;;5.60;;
4464;SDS011;2245;48.136;13.428;2023-06-22T07:32:52;17.83;;;5.40;;
4464;SDS011;2245;48.136;13.428;2023-06-22T07:35:19;11.90;;;4.67;;
4464;SDS011;2245;48.136;13.428;2023-06-22T07:37:46;10.60;;;4.10;;
4464;SDS011;2245;48.136;13.428;2023-06-22T07:40:13;8.17;;;4.60;;
4464;SDS011;2245;48.136;13.428;2023-06-22T07:42:39;12.93;;;4.97;;
4464;SDS011;2245;48.136;13.428;2023-06-22T07:45:07;9.47;;;4.83;;
4464;SDS011;2245;48.136;13.428;2023-06-22T07:47:34;7.80;;;4.30;;
4464;SDS011;2245;48.136;13.428;2023-06-22T07:50:02;7.77;;;4.30;;
4464;SDS011;2245;48.136;13.428;2023-06-22T07:52:30;9.73;;;4.80;;
4464;SDS011;2245;48.136;13.428;2023-06-22T07:54:57;16.47;;;4.70;;
4464;SDS011;2245;48.136;13.428;2023-06-22T07:57:24;8.20;;;4.23;;
4464;SDS011;2245;48.136;13.428;2023-06-22T07:59:58;10.03;;;4.97;;
4464;SDS011;2245;48.136;13.428;2023-06-22T08:02:25;12.93;;;5.00;;
4464;SDS011;2245;48.136;13.428;2023-06-22T08:04:52;10.53;;;5.80;;
4464;SDS011;2245;48.136;13.428;2023-06-22T08:07:20;8.40;;;4.80;;
4464;SDS011;2245;48.136;13.428;2023-06-22T08:09:47;7.67;;;4.60;;
4464;SDS011;2245;48.136;13.428;2023-06-22T08:12:15;16.43;;;5.27;;
4464;SDS011;2245;48.136;13.428;2023-06-22T08:14:43;13.30;;;5.37;;
4464;SDS011;2245;48.136;13.428;2023-06-22T08:17:11;13.47;;;5.83;;
4464;SDS011;2245;48.136;13.428;2023-06-22T08:19:39;10.47;;;5.20;;
4464;SDS011;2245;48.136;13.428;2023-06-22T08:22:06;8.37;;;5.80;;
4464;SDS011;2245;48.136;13.428;2023-06-22T08:24:34;19.97;;;6.20;;
4464;SDS011;2245;48.136;13.428;2023-06-22T08:27:01;11.07;;;5.17;;
4464;SDS011;2245;48.136;13.428;2023-06-22T08:29:28;14.13;;;6.13;;
4464;SDS011;2245;48.136;13.428;2023-06-22T08:31:54;11.30;;;5.97;;
4464;SDS011;2245;48.136;13.428;2023-06-22T08:34:21;10.90;;;6.03;;
4464;SDS011;2245;48.136;13.428;2023-06-22T08:36:48;12.17;;;5.77;;
4464;SDS011;2245;48.136;13.428;2023-06-22T08:39:17;15.73;;;5.87;;
4464;SDS011;2245;48.136;13.428;2023-06-22T08:41:46;12.27;;;6.47;;
4464;SDS011;2245;48.136;13.428;2023-06-22T08:44:13;16.10;;;5.60;;
4464;SDS011;2245;48.136;13.428;2023-06-22T08:46:40;11.27;;;6.50;;
4464;SDS011;2245;48.136;13.428;2023-06-22T08:49:07;19.90;;;5.60;;
4464;SDS011;2245;48.136;13.428;2023-06-22T08:51:35;11.73;;;5.90;;
4464;SDS011;2245;48.136;13.428;2023-06-22T08:54:02;19.17;;;6.27;;
4464;SDS011;2245;48.136;13.428;2023-06-22T08:56:30;11.73;;;5.40;;
4464;SDS011;2245;48.136;13.428;2023-06-22T08:58:58;15.93;;;6.60;;
4464;SDS011;2245;48.136;13.428;2023-06-22T09:01:25;14.23;;;6.40;;
4464;SDS011;2245;48.136;13.428;2023-06-22T09:03:52;9.20;;;5.37;;
4464;SDS011;2245;48.136;13.428;2023-06-22T09:06:22;11.63;;;6.43;;
4464;SDS011;2245;48.136;13.428;2023-06-22T09:08:49;11.87;;;6.10;;
4464;SDS011;2245;48.136;13.428;2023-06-22T09:11:16;8.93;;;6.57;;
4464;SDS011;2245;48.136;13.428;2023-06-22T09:13:43;11.17;;;5.10;;
4464;SDS011;2245;48.136;13.428;2023-06-22T09:16:12;15.30;;;5.53;;
4464;SDS011;2245;48.136;13.428;2023-06-22T09:18:39;9.97;;;5.13;;
4464;SDS011;2245;48.136;13.428;2023-06-22T09:21:07;22.80;;;6.53;;
4464;SDS011;2245;48.136;13.428;2023-06-22T09:23:34;11.97;;;5.87;;
4464;SDS011;2245;48.136;13.428;2023-06-22T09:26:01;10.03;;;5.60;;
4464;SDS011;2245;48.136;13.428;2023-06-22T09:28:29;9.43;;;5.47;;
4464;SDS011;2245;48.136;13.428;2023-06-22T09:30:56;15.57;;;5.53;;
4464;SDS011;2245;48.136;13.428;2023-06-22T09:33:26;13.40;;;6.27;;
4464;SDS011;2245;48.136;13.428;2023-06-22T09:35:53;16.23;;;5.93;;
4464;SDS011;2245;48.136;13.428;2023-06-22T09:38:20;13.57;;;6.07;;
4464;SDS011;2245;48.136;13.428;2023-06-22T09:40:46;12.67;;;7.10;;
4464;SDS011;2245;48.136;13.428;2023-06-22T09:43:13;17.30;;;6.43;;
4464;SDS011;2245;48.136;13.428;2023-06-22T09:45:40;9.40;;;5.77;;
4464;SDS011;2245;48.136;13.428;2023-06-22T09:48:07;13.83;;;6.47;;
4464;SDS011;2245;48.136;13.428;2023-06-22T09:50:36;13.80;;;6.40;;
4464;SDS011;2245;48.136;13.428;2023-06-22T09:53:03;13.17;;;7.23;;
4464;SDS011;2245;48.136;13.428;2023-06-22T09:55:30;14.27;;;5.60;;
4464;SDS011;2245;48.136;13.428;2023-06-22T09:57:57;8.50;;;5.07;;
4464;SDS011;2245;48.136;13.428;2023-06-22T10:00:23;13.13;;;5.30;;
4464;SDS011;2245;48.136;13.428;2023-06-22T10:02:51;20.97;;;6.77;;
4464;SDS011;2245;48.136;13.428;2023-06-22T10:05:18;11.97;;;6.43;;
4464;SDS011;2245;48.136;13.428;2023-06-22T10:07:47;6.70;;;5.10;;
4464;SDS011;2245;48.136;13.428;2023-06-22T10:10:13;12.47;;;5.83;;
4464;SDS011;2245;48.136;13.428;2023-06-22T10:12:42;17.00;;;6.50;;
4464;SDS011;2245;48.136;13.428;2023-06-22T10:15:11;18.43;;;6.03;;
4464;SDS011;2245;48.136;13.428;2023-06-22T10:17:38;17.10;;;5.97;;
4464;SDS011;2245;48.136;13.428;2023-06-22T10:20:05;16.10;;;6.50;;
4464;SDS011;2245;48.136;13.428;2023-06-22T10:22:37;12.73;;;6.67;;
4464;SDS011;2245;48.136;13.428;2023-06-22T10:25:06;15.43;;;6.67;;
4464;SDS011;2245;48.136;13.428;2023-06-22T10:27:34;15.13;;;5.83;;
4464;SDS011;2245;48.136;13.428;2023-06-22T10:30:01;13.00;;;6.47;;
4464;SDS011;2245;48.136;13.428;2023-06-22T10:32:28;19.47;;;6.60;;
4464;SDS011;2245;48.136;13.428;2023-06-22T10:34:55;10.50;;;6.40;;
4464;SDS011;2245;48.136;13.428;2023-06-22T10:37:22;10.10;;;6.30;;
4464;SDS011;2245;48.136;13.428;2023-06-22T10:39:49;10.80;;;6.23;;
4464;SDS011;2245;48.136;13.428;2023-06-22T10:42:17;12.63;;;6.00;;
4464;SDS011;2245;48.136;13.428;2023-06-22T10:44:44;12.73;;;6.30;;
4464;SDS011;2245;48.136;13.428;2023-06-22T10:47:11;16.73;;;6.57;;
4464;SDS011;2245;48.136;13.428;2023-06-22T10:49:38;9.37;;;5.70;;
4464;SDS011;2245;48.136;13.428;2023-06-22T10:52:05;10.60;;;5.63;;
4464;SDS011;2245;48.136;13.428;2023-06-22T10:54:32;9.50;;;5.20;;
4464;SDS011;2245;48.136;13.428;2023-06-22T10:56:59;12.57;;;5.53;;
4464;SDS011;2245;48.136;13.428;2023-06-22T10:59:28;13.87;;;5.90;;
4464;SDS011;2245;48.136;13.428;2023-06-22T11:01:55;9.97;;;6.57;;
4464;SDS011;2245;48.136;13.428;2023-06-22T11:04:22;9.93;;;5.97;;
4464;SDS011;2245;48.136;13.428;2023-06-22T11:06:49;8.00;;;5.10;;
4464;SDS011;2245;48.136;13.428;2023-06-22T11:09:17;19.43;;;6.43;;
4464;SDS011;2245;48.136;13.428;2023-06-22T11:11:46;11.77;;;5.63;;
4464;SDS011;2245;48.136;13.428;2023-06-22T11:14:13;10.97;;;7.00;;
4464;SDS011;2245;48.136;13.428;2023-06-22T11:16:41;11.17;;;5.60;;
4464;SDS011;2245;48.136;13.428;2023-06-22T11:19:08;14.00;;;6.50;;
4464;SDS011;2245;48.136;13.428;2023-06-22T11:21:35;10.30;;;6.03;;
4464;SDS011;2245;48.136;13.428;2023-06-22T11:24:02;14.17;;;7.60;;
4464;SDS011;2245;48.136;13.428;2023-06-22T11:26:30;11.57;;;6.80;;
4464;SDS011;2245;48.136;13.428;2023-06-22T11:28:58;20.23;;;7.67;;
4464;SDS011;2245;48.136;13.428;2023-06-22T11:31:25;15.33;;;6.40;;
4464;SDS011;2245;48.136;13.428;2023-06-22T11:33:53;20.43;;;5.43;;
4464;SDS011;2245;48.136;13.428;2023-06-22T11:36:20;15.00;;;6.27;;
4464;SDS011;2245;48.136;13.428;2023-06-22T11:38:47;10.93;;;6.60;;
4464;SDS011;2245;48.136;13.428;2023-06-22T11:41:14;13.27;;;7.00;;
4464;SDS011;2245;48.136;13.428;2023-06-22T11:43:41;10.90;;;6.40;;
4464;SDS011;2245;48.136;13.428;2023-06-22T11:46:07;13.97;;;6.30;;
4464;SDS011;2245;48.136;13.428;2023-06-22T11:48:34;12.77;;;7.00;;
4464;SDS011;2245;48.136;13.428;2023-06-22T11:51:03;12.20;;;6.73;;
4464;SDS011;2245;48.136;13.428;2023-06-22T11:53:31;11.77;;;6.07;;
4464;SDS011;2245;48.136;13.428;2023-06-22T11:56:00;16.27;;;6.83;;
4464;SDS011;2245;48.136;13.428;2023-06-22T11:58:27;14.40;;;7.43;;
4464;SDS011;2245;48.136;13.428;2023-06-22T12:00:54;8.60;;;6.17;;
4464;SDS011;2245;48.136;13.428;2023-06-22T12:03:21;9.47;;;5.47;;
4464;SDS011;2245;48.136;13.428;2023-06-22T12:05:49;12.03;;;5.73;;
4464;SDS011;2245;48.136;13.428;2023-06-22T12:08:18;11.10;;;5.70;;
4464;SDS011;2245;48.136;13.428;2023-06-22T12:10:45;18.23;;;6.43;;
4464;SDS011;2245;48.136;13.428;2023-06-22T12:13:12;9.60;;;5.23;;
4464;SDS011;2245;48.136;13.428;2023-06-22T12:15:39;10.33;;;4.87;;
4464;SDS011;2245;48.136;13.428;2023-06-22T12:18:06;16.40;;;6.47;;
4464;SDS011;2245;48.136;13.428;2023-06-22T12:20:33;11.20;;;6.20;;
4464;SDS011;2245;48.136;13.428;2023-06-22T12:23:01;12.93;;;7.03;;
4464;SDS011;2245;48.136;13.428;2023-06-22T12:25:29;11.83;;;6.40;;
4464;SDS011;2245;48.136;13.428;2023-06-22T12:27:56;18.40;;;6.93;;
4464;SDS011;2245;48.136;13.428;2023-06-22T12:30:23;8.67;;;5.50;;
4464;SDS011;2245;48.136;13.428;2023-06-22T12:32:50;24.10;;;7.37;;
4464;SDS011;2245;48.136;13.428;2023-06-22T12:35:16;18.07;;;6.67;;
4464;SDS011;2245;48.136;13.428;2023-06-22T12:37:43;10.70;;;6.17;;
4464;SDS011;2245;48.136;13.428;2023-06-22T12:40:10;11.57;;;6.97;;
4464;SDS011;2245;48.136;13.428;2023-06-22T12:42:39;15.90;;;6.00;;
4464;SDS011;2245;48.136;13.428;2023-06-22T12:45:07;9.67;;;6.10;;
4464;SDS011;2245;48.136;13.428;2023-06-22T12:47:34;25.20;;;6.80;;
4464;SDS011;2245;48.136;13.428;2023-06-22T12:50:01;13.93;;;6.03;;
4464;SDS011;2245;48.136;13.428;2023-06-22T12:52:29;9.87;;;6.10;;
4464;SDS011;2245;48.136;13.428;2023-06-22T12:54:56;14.23;;;5.57;;
4464;SDS011;2245;48.136;13.428;2023-06-22T12:57:23;13.07;;;6.00;;
4464;SDS011;2245;48.136;13.428;2023-06-22T12:59:52;11.60;;;6.53;;
4464;SDS011;2245;48.136;13.428;2023-06-22T13:02:18;13.17;;;6.67;;
4464;SDS011;2245;48.136;13.428;2023-06-22T13:04:46;9.83;;;6.37;;
4464;SDS011;2245;48.136;13.428;2023-06-22T13:07:12;12.13;;;5.93;;
4464;SDS011;2245;48.136;13.428;2023-06-22T13:09:39;13.33;;;5.50;;
4464;SDS011;2245;48.136;13.428;2023-06-22T13:12:07;14.80;;;6.23;;
4464;SDS011;2245;48.136;13.428;2023-06-22T13:14:34;22.93;;;6.10;;
4464;SDS011;2245;48.136;13.428;2023-06-22T13:17:03;10.50;;;5.80;;
4464;SDS011;2245;48.136;13.428;2023-06-22T13:19:30;22.27;;;6.00;;
4464;SDS011;2245;48.136;13.428;2023-06-22T13:21:57;14.73;;;6.07;;
4464;SDS011;2245;48.136;13.428;2023-06-22T13:24:25;11.33;;;6.40;;
4464;SDS011;2245;48.136;13.428;2023-06-22T13:26:52;11.23;;;6.00;;
4464;SDS011;2245;48.136;13.428;2023-06-22T13:29:19;12.10;;;5.57;;
4464;SDS011;2245;48.136;13.428;2023-06-22T13:31:45;11.90;;;5.90;;
4464;SDS011;2245;48.136;13.428;2023-06-22T13:34:14;12.50;;;6.13;;
4464;SDS011;2245;48.136;13.428;2023-06-22T13:36:41;11.17;;;7.23;;
4464;SDS011;2245;48.136;13.428;2023-06-22T13:39:08;10.30;;;5.90;;
4464;SDS011;2245;48.136;13.428;2023-06-22T13:41:35;16.97;;;6.80;;
4464;SDS011;2245;48.136;13.428;2023-06-22T13:44:02;14.07;;;6.70;;
4464;SDS011;2245;48.136;13.428;2023-06-22T13:46:29;13.10;;;5.80;;
4464;SDS011;2245;48.136;13.428;2023-06-22T13:48:55;16.10;;;6.87;;
4464;SDS011;2245;48.136;13.428;2023-06-22T13:51:24;18.73;;;7.30;;
4464;SDS011;2245;48.136;13.428;2023-06-22T13:53:51;10.20;;;6.60;;
4464;SDS011;2245;48.136;13.428;2023-06-22T13:56:17;18.30;;;6.53;;
4464;SDS011;2245;48.136;13.428;2023-06-22T13:58:44;12.77;;;6.13;;
4464;SDS011;2245;48.136;13.428;2023-06-22T14:01:11;15.27;;;6.47;;
4464;SDS011;2245;48.136;13.428;2023-06-22T14:03:38;9.53;;;6.10;;
4464;SDS011;2245;48.136;13.428;2023-06-22T14:06:05;12.90;;;6.30;;
4464;SDS011;2245;48.136;13.428;2023-06-22T14:08:33;17.73;;;6.13;;
4464;SDS011;2245;48.136;13.428;2023-06-22T14:11:00;13.13;;;6.20;;
4464;SDS011;2245;48.136;13.428;2023-06-22T14:13:26;11.30;;;6.23;;
4464;SDS011;2245;48.136;13.428;2023-06-22T14:15:53;10.37;;;6.10;;
4464;SDS011;2245;48.136;13.428;2023-06-22T14:18:20;13.20;;;6.57;;
4464;SDS011;2245;48.136;13.428;2023-06-22T14:20:48;16.93;;;5.93;;
4464;SDS011;2245;48.136;13.428;2023-06-22T14:23:15;14.90;;;6.40;;
4464;SDS011;2245;48.136;13.428;2023-06-22T14:25:43;12.10;;;5.40;;
4464;SDS011;2245;48.136;13.428;2023-06-22T14:28:10;11.23;;;6.17;;
4464;SDS011;2245;48.136;13.428;2023-06-22T14:30:37;17.60;;;7.40;;
4464;SDS011;2245;48.136;13.428;2023-06-22T14:33:03;12.83;;;6.30;;
4464;SDS011;2245;48.136;13.428;2023-06-22T14:35:31;18.73;;;6.40;;
4464;SDS011;2245;48.136;13.428;2023-06-22T14:37:58;11.30;;;6.33;;
4464;SDS011;2245;48.136;13.428;2023-06-22T14:40:25;17.67;;;6.03;;
4464;SDS011;2245;48.136;13.428;2023-06-22T14:42:53;15.17;;;5.20;;
4464;SDS011;2245;48.136;13.428;2023-06-22T14:45:21;20.10;;;7.10;;
4464;SDS011;2245;48.136;13.428;2023-06-22T14:47:48;18.27;;;6.20;;
4464;SDS011;2245;48.136;13.428;2023-06-22T14:50:15;21.33;;;5.83;;
4464;SDS011;2245;48.136;13.428;2023-06-22T14:52:42;15.43;;;6.50;;
4464;SDS011;2245;48.136;13.428;2023-06-22T14:55:09;15.80;;;6.13;;
4464;SDS011;2245;48.136;13.428;2023-06-22T14:57:35;15.77;;;6.37;;
4464;SDS011;2245;48.136;13.428;2023-06-22T15:00:04;14.00;;;6.33;;
4464;SDS011;2245;48.136;13.428;2023-06-22T15:02:32;17.30;;;7.27;;